sensor_id;sensor_type;location;lat;lon;timestamp;temperature;humidity
31735;DHT22;18313;48.518;9.124;2024-02-21T00:00:04;5.00;99.90
31735;DHT22;18313;48.518;9.124;2024-02-21T00:02:32;5.00;99.90
31735;DHT22;18313;48.518;9.124;2024-02-21T00:04:59;5.00;99.90
31735;DHT22;18313;48.518;9.124;2024-02-21T00:07:26;5.10;99.90
31735;DHT22;18313;48.518;9.124;2024-02-21T00:09:54;5.10;99.90
31735;DHT22;18313;48.518;9.124;2024-02-21T00:12:21;5.00;99.90
31735;DHT22;18313;48.518;9.124;2024-02-21T00:14:49;4.90;99.90
31735;DHT22;18313;48.518;9.124;2024-02-21T00:17:16;4.90;99.90
31735;DHT22;18313;48.518;9.124;2024-02-21T00:19:43;4.80;99.90
31735;DHT22;18313;48.518;9.124;2024-02-21T00:22:11;4.90;99.90
31735;DHT22;18313;48.518;9.124;2024-02-21T00:24:38;5.00;99.90
31735;DHT22;18313;48.518;9.124;2024-02-21T00:27:05;5.10;99.90
31735;DHT22;18313;48.518;9.124;2024-02-21T00:29:33;5.20;99.90
31735;DHT22;18313;48.518;9.124;2024-02-21T00:32:01;5.20;99.90
31735;DHT22;18313;48.518;9.124;2024-02-21T00:34:29;5.20;99.90
31735;DHT22;18313;48.518;9.124;2024-02-21T00:36:56;5.20;99.90
31735;DHT22;18313;48.518;9.124;2024-02-21T00:39:24;5.20;99.90
31735;DHT22;18313;48.518;9.124;2024-02-21T00:41:51;5.30;99.90
31735;DHT22;18313;48.518;9.124;2024-02-21T00:44:18;5.30;99.90
31735;DHT22;18313;48.518;9.124;2024-02-21T00:46:45;5.30;99.90
31735;DHT22;18313;48.518;9.124;2024-02-21T00:49:14;5.20;99.90
31735;DHT22;18313;48.518;9.124;2024-02-21T00:51:41;5.10;99.90
31735;DHT22;18313;48.518;9.124;2024-02-21T00:54:08;5.20;99.90
31735;DHT22;18313;48.518;9.124;2024-02-21T00:56:36;5.20;99.90
31735;DHT22;18313;48.518;9.124;2024-02-21T00:59:03;5.20;99.90
31735;DHT22;18313;48.518;9.124;2024-02-21T01:01:30;5.10;99.90
31735;DHT22;18313;48.518;9.124;2024-02-21T01:03:58;5.10;99.90
31735;DHT22;18313;48.518;9.124;2024-02-21T01:06:25;5.00;99.90
31735;DHT22;18313;48.518;9.124;2024-02-21T01:08:53;4.90;99.90
31735;DHT22;18313;48.518;9.124;2024-02-21T01:11:20;4.90;99.90
31735;DHT22;18313;48.518;9.124;2024-02-21T01:13:48;5.00;99.90
31735;DHT22;18313;48.518;9.124;2024-02-21T01:16:15;5.00;99.90
31735;DHT22;18313;48.518;9.124;2024-02-21T01:18:42;5.10;99.90
31735;DHT22;18313;48.518;9.124;2024-02-21T01:21:10;5.10;99.90
31735;DHT22;18313;48.518;9.124;2024-02-21T01:23:37;5.20;99.90
31735;DHT22;18313;48.518;9.124;2024-02-21T01:26:04;5.20;99.90
31735;DHT22;18313;48.518;9.124;2024-02-21T01:28:32;5.10;99.90
31735;DHT22;18313;48.518;9.124;2024-02-21T01:30:59;5.10;99.90
31735;DHT22;18313;48.518;9.124;2024-02-21T01:33:27;5.00;99.90
31735;DHT22;18313;48.518;9.124;2024-02-21T01:35:54;5.10;99.90
31735;DHT22;18313;48.518;9.124;2024-02-21T01:38:22;5.10;99.90
31735;DHT22;18313;48.518;9.124;2024-02-21T01:40:50;5.00;99.90
31735;DHT22;18313;48.518;9.124;2024-02-21T01:43:19;5.00;99.90
31735;DHT22;18313;48.518;9.124;2024-02-21T01:45:50;4.90;99.90
31735;DHT22;18313;48.518;9.124;2024-02-21T01:48:18;4.90;99.90
31735;DHT22;18313;48.518;9.124;2024-02-21T01:50:53;4.90;99.90
31735;DHT22;18313;48.518;9.124;2024-02-21T01:53:30;4.90;99.90
31735;DHT22;18313;48.518;9.124;2024-02-21T01:55:57;4.90;99.90
31735;DHT22;18313;48.518;9.124;2024-02-21T01:58:25;4.90;99.90
31735;DHT22;18313;48.518;9.124;2024-02-21T02:00:53;5.00;99.90
31735;DHT22;18313;48.518;9.124;2024-02-21T02:03:22;5.00;99.90
31735;DHT22;18313;48.518;9.124;2024-02-21T02:05:50;5.00;99.90
31735;DHT22;18313;48.518;9.124;2024-02-21T02:08:19;5.00;99.90
31735;DHT22;18313;48.518;9.124;2024-02-21T02:10:46;5.00;99.90
31735;DHT22;18313;48.518;9.124;2024-02-21T02:13:14;5.00;99.90
31735;DHT22;18313;48.518;9.124;2024-02-21T02:15:43;5.00;99.90
31735;DHT22;18313;48.518;9.124;2024-02-21T02:18:11;5.00;99.90
31735;DHT22;18313;48.518;9.124;2024-02-21T02:20:39;5.00;99.90
31735;DHT22;18313;48.518;9.124;2024-02-21T02:25:50;5.10;99.90
31735;DHT22;18313;48.518;9.124;2024-02-21T02:28:21;5.10;99.90
31735;DHT22;18313;48.518;9.124;2024-02-21T02:30:49;4.90;99.90
31735;DHT22;18313;48.518;9.124;2024-02-21T02:33:16;4.90;99.90
31735;DHT22;18313;48.518;9.124;2024-02-21T02:35:47;4.90;99.90
31735;DHT22;18313;48.518;9.124;2024-02-21T02:38:14;5.00;99.90
31735;DHT22;18313;48.518;9.124;2024-02-21T02:40:42;5.00;99.90
31735;DHT22;18313;48.518;9.124;2024-02-21T02:43:09;4.90;99.90
31735;DHT22;18313;48.518;9.124;2024-02-21T02:45:37;4.80;99.90
31735;DHT22;18313;48.518;9.124;2024-02-21T02:48:04;4.90;99.90
31735;DHT22;18313;48.518;9.124;2024-02-21T02:50:32;4.80;99.90
31735;DHT22;18313;48.518;9.124;2024-02-21T02:52:59;4.90;99.90
31735;DHT22;18313;48.518;9.124;2024-02-21T02:55:26;4.90;99.90
31735;DHT22;18313;48.518;9.124;2024-02-21T02:57:54;4.90;99.90
31735;DHT22;18313;48.518;9.124;2024-02-21T03:00:21;5.00;99.90
31735;DHT22;18313;48.518;9.124;2024-02-21T03:02:49;5.10;99.90
31735;DHT22;18313;48.518;9.124;2024-02-21T03:05:20;5.10;99.90
31735;DHT22;18313;48.518;9.124;2024-02-21T03:07:48;5.10;99.90
31735;DHT22;18313;48.518;9.124;2024-02-21T03:10:16;5.10;99.90
31735;DHT22;18313;48.518;9.124;2024-02-21T03:12:45;5.10;99.90
31735;DHT22;18313;48.518;9.124;2024-02-21T03:15:13;5.20;99.90
31735;DHT22;18313;48.518;9.124;2024-02-21T03:17:41;5.10;99.90
31735;DHT22;18313;48.518;9.124;2024-02-21T03:20:10;5.10;99.90
31735;DHT22;18313;48.518;9.124;2024-02-21T03:22:40;5.20;99.90
31735;DHT22;18313;48.518;9.124;2024-02-21T03:25:11;5.20;99.90
31735;DHT22;18313;48.518;9.124;2024-02-21T03:27:39;5.20;99.90
31735;DHT22;18313;48.518;9.124;2024-02-21T03:30:07;5.30;99.90
31735;DHT22;18313;48.518;9.124;2024-02-21T03:32:35;5.30;99.90
31735;DHT22;18313;48.518;9.124;2024-02-21T03:35:03;5.30;99.90
31735;DHT22;18313;48.518;9.124;2024-02-21T03:37:30;5.40;99.90
31735;DHT22;18313;48.518;9.124;2024-02-21T03:39:57;5.30;99.90
31735;DHT22;18313;48.518;9.124;2024-02-21T03:42:25;5.20;99.90
31735;DHT22;18313;48.518;9.124;2024-02-21T03:44:52;5.20;99.90
31735;DHT22;18313;48.518;9.124;2024-02-21T03:47:19;5.20;99.90
31735;DHT22;18313;48.518;9.124;2024-02-21T03:49:46;5.20;99.90
31735;DHT22;18313;48.518;9.124;2024-02-21T03:52:14;5.10;99.90
31735;DHT22;18313;48.518;9.124;2024-02-21T03:54:41;5.20;99.90
31735;DHT22;18313;48.518;9.124;2024-02-21T03:57:08;5.20;99.90
31735;DHT22;18313;48.518;9.124;2024-02-21T03:59:36;5.20;99.90
31735;DHT22;18313;48.518;9.124;2024-02-21T04:02:03;5.10;99.90
31735;DHT22;18313;48.518;9.124;2024-02-21T04:04:35;5.10;99.90
31735;DHT22;18313;48.518;9.124;2024-02-21T04:07:04;5.10;99.90
31735;DHT22;18313;48.518;9.124;2024-02-21T04:09:35;5.20;99.90
31735;DHT22;18313;48.518;9.124;2024-02-21T04:12:03;5.10;99.90
31735;DHT22;18313;48.518;9.124;2024-02-21T04:14:30;5.10;99.90
31735;DHT22;18313;48.518;9.124;2024-02-21T04:16:58;5.20;99.90
31735;DHT22;18313;48.518;9.124;2024-02-21T04:19:26;5.20;99.90
31735;DHT22;18313;48.518;9.124;2024-02-21T04:21:53;5.10;99.90
31735;DHT22;18313;48.518;9.124;2024-02-21T04:24:20;5.20;99.90
31735;DHT22;18313;48.518;9.124;2024-02-21T04:26:48;5.00;99.90
31735;DHT22;18313;48.518;9.124;2024-02-21T04:29:17;4.90;99.90
31735;DHT22;18313;48.518;9.124;2024-02-21T04:31:44;4.90;99.90
31735;DHT22;18313;48.518;9.124;2024-02-21T04:34:12;5.00;99.90
31735;DHT22;18313;48.518;9.124;2024-02-21T04:36:39;5.00;99.90
31735;DHT22;18313;48.518;9.124;2024-02-21T04:39:07;5.00;99.90
31735;DHT22;18313;48.518;9.124;2024-02-21T04:41:34;5.00;99.90
31735;DHT22;18313;48.518;9.124;2024-02-21T04:44:02;4.90;99.90
31735;DHT22;18313;48.518;9.124;2024-02-21T04:46:30;4.70;99.90
31735;DHT22;18313;48.518;9.124;2024-02-21T04:48:58;4.80;99.90
31735;DHT22;18313;48.518;9.124;2024-02-21T04:51:26;4.70;99.90
31735;DHT22;18313;48.518;9.124;2024-02-21T04:53:53;4.60;99.90
31735;DHT22;18313;48.518;9.124;2024-02-21T04:56:21;4.60;99.90
31735;DHT22;18313;48.518;9.124;2024-02-21T04:58:48;4.60;99.90
31735;DHT22;18313;48.518;9.124;2024-02-21T05:01:15;4.50;99.90
31735;DHT22;18313;48.518;9.124;2024-02-21T05:03:43;4.50;99.90
31735;DHT22;18313;48.518;9.124;2024-02-21T05:06:10;4.50;99.90
31735;DHT22;18313;48.518;9.124;2024-02-21T05:08:40;4.50;99.90
31735;DHT22;18313;48.518;9.124;2024-02-21T05:11:07;4.50;99.90
31735;DHT22;18313;48.518;9.124;2024-02-21T05:13:35;4.50;99.90
31735;DHT22;18313;48.518;9.124;2024-02-21T05:16:02;4.40;99.90
31735;DHT22;18313;48.518;9.124;2024-02-21T05:18:30;4.40;99.90
31735;DHT22;18313;48.518;9.124;2024-02-21T05:20:59;4.30;99.90
31735;DHT22;18313;48.518;9.124;2024-02-21T05:23:26;4.30;99.90
31735;DHT22;18313;48.518;9.124;2024-02-21T05:25:53;4.30;99.90
31735;DHT22;18313;48.518;9.124;2024-02-21T05:28:21;4.40;99.90
31735;DHT22;18313;48.518;9.124;2024-02-21T05:30:48;4.40;99.90
31735;DHT22;18313;48.518;9.124;2024-02-21T05:33:15;4.40;99.90
31735;DHT22;18313;48.518;9.124;2024-02-21T05:35:48;4.40;99.90
31735;DHT22;18313;48.518;9.124;2024-02-21T05:38:16;4.40;99.90
31735;DHT22;18313;48.518;9.124;2024-02-21T05:40:44;4.40;99.90
31735;DHT22;18313;48.518;9.124;2024-02-21T05:43:13;4.40;99.90
31735;DHT22;18313;48.518;9.124;2024-02-21T05:45:40;4.50;99.90
31735;DHT22;18313;48.518;9.124;2024-02-21T05:48:08;4.40;99.90
31735;DHT22;18313;48.518;9.124;2024-02-21T05:50:36;4.30;99.90
31735;DHT22;18313;48.518;9.124;2024-02-21T05:53:03;4.30;99.90
31735;DHT22;18313;48.518;9.124;2024-02-21T05:55:31;4.30;99.90
31735;DHT22;18313;48.518;9.124;2024-02-21T05:57:58;4.20;99.90
31735;DHT22;18313;48.518;9.124;2024-02-21T06:00:25;4.20;99.90
31735;DHT22;18313;48.518;9.124;2024-02-21T06:02:55;4.20;99.90
31735;DHT22;18313;48.518;9.124;2024-02-21T06:05:23;4.20;99.90
31735;DHT22;18313;48.518;9.124;2024-02-21T06:07:50;4.20;99.90
31735;DHT22;18313;48.518;9.124;2024-02-21T06:10:18;4.20;99.90
31735;DHT22;18313;48.518;9.124;2024-02-21T06:12:46;4.00;99.90
31735;DHT22;18313;48.518;9.124;2024-02-21T06:15:13;4.00;99.90
31735;DHT22;18313;48.518;9.124;2024-02-21T06:17:40;4.10;99.90
31735;DHT22;18313;48.518;9.124;2024-02-21T06:20:08;4.20;99.90
31735;DHT22;18313;48.518;9.124;2024-02-21T06:22:36;4.10;99.90
31735;DHT22;18313;48.518;9.124;2024-02-21T06:25:04;4.10;99.90
31735;DHT22;18313;48.518;9.124;2024-02-21T06:27:32;4.00;99.90
31735;DHT22;18313;48.518;9.124;2024-02-21T06:29:59;4.00;99.90
31735;DHT22;18313;48.518;9.124;2024-02-21T06:32:27;4.00;99.90
31735;DHT22;18313;48.518;9.124;2024-02-21T06:34:55;3.90;99.90
31735;DHT22;18313;48.518;9.124;2024-02-21T06:37:22;3.90;99.90
31735;DHT22;18313;48.518;9.124;2024-02-21T06:39:50;3.80;99.90
31735;DHT22;18313;48.518;9.124;2024-02-21T06:42:17;3.80;99.90
31735;DHT22;18313;48.518;9.124;2024-02-21T06:44:45;3.80;99.90
31735;DHT22;18313;48.518;9.124;2024-02-21T06:47:12;3.90;99.90
31735;DHT22;18313;48.518;9.124;2024-02-21T06:49:39;3.90;99.90
31735;DHT22;18313;48.518;9.124;2024-02-21T06:52:07;3.90;99.90
31735;DHT22;18313;48.518;9.124;2024-02-21T06:54:35;3.90;99.90
31735;DHT22;18313;48.518;9.124;2024-02-21T06:57:02;3.90;99.90
31735;DHT22;18313;48.518;9.124;2024-02-21T06:59:29;3.90;99.90
31735;DHT22;18313;48.518;9.124;2024-02-21T07:01:57;4.00;99.90
31735;DHT22;18313;48.518;9.124;2024-02-21T07:04:24;4.00;99.90
31735;DHT22;18313;48.518;9.124;2024-02-21T07:06:52;4.00;99.90
31735;DHT22;18313;48.518;9.124;2024-02-21T07:09:19;4.20;99.90
31735;DHT22;18313;48.518;9.124;2024-02-21T07:11:47;4.20;99.90
31735;DHT22;18313;48.518;9.124;2024-02-21T07:14:15;4.20;99.90
31735;DHT22;18313;48.518;9.124;2024-02-21T07:16:45;4.30;99.90
31735;DHT22;18313;48.518;9.124;2024-02-21T07:19:12;4.30;99.90
31735;DHT22;18313;48.518;9.124;2024-02-21T07:21:40;4.30;99.90
31735;DHT22;18313;48.518;9.124;2024-02-21T07:24:09;4.40;99.90
31735;DHT22;18313;48.518;9.124;2024-02-21T07:26:36;4.40;99.90
31735;DHT22;18313;48.518;9.124;2024-02-21T07:29:04;4.50;99.90
31735;DHT22;18313;48.518;9.124;2024-02-21T07:31:31;4.60;99.90
31735;DHT22;18313;48.518;9.124;2024-02-21T07:33:58;4.70;99.90
31735;DHT22;18313;48.518;9.124;2024-02-21T07:36:30;4.70;99.90
31735;DHT22;18313;48.518;9.124;2024-02-21T07:38:57;4.70;99.90
31735;DHT22;18313;48.518;9.124;2024-02-21T07:41:27;4.80;99.90
31735;DHT22;18313;48.518;9.124;2024-02-21T07:43:57;4.90;99.90
31735;DHT22;18313;48.518;9.124;2024-02-21T07:46:25;4.90;99.90
31735;DHT22;18313;48.518;9.124;2024-02-21T07:48:52;5.00;99.90
31735;DHT22;18313;48.518;9.124;2024-02-21T07:51:21;5.10;99.90
31735;DHT22;18313;48.518;9.124;2024-02-21T07:53:48;5.20;99.90
31735;DHT22;18313;48.518;9.124;2024-02-21T07:56:15;5.30;99.90
31735;DHT22;18313;48.518;9.124;2024-02-21T07:58:42;5.50;99.90
31735;DHT22;18313;48.518;9.124;2024-02-21T08:01:10;5.60;99.90
31735;DHT22;18313;48.518;9.124;2024-02-21T08:03:38;5.60;99.90
31735;DHT22;18313;48.518;9.124;2024-02-21T08:06:05;5.70;99.90
31735;DHT22;18313;48.518;9.124;2024-02-21T08:08:32;5.80;99.90
31735;DHT22;18313;48.518;9.124;2024-02-21T08:11:00;5.90;99.90
31735;DHT22;18313;48.518;9.124;2024-02-21T08:13:28;6.00;99.90
31735;DHT22;18313;48.518;9.124;2024-02-21T08:15:56;6.00;99.90
31735;DHT22;18313;48.518;9.124;2024-02-21T08:18:24;6.20;99.90
31735;DHT22;18313;48.518;9.124;2024-02-21T08:20:52;6.30;99.90
31735;DHT22;18313;48.518;9.124;2024-02-21T08:23:19;6.40;99.90
31735;DHT22;18313;48.518;9.124;2024-02-21T08:25:47;6.50;99.90
31735;DHT22;18313;48.518;9.124;2024-02-21T08:28:14;6.60;99.90
31735;DHT22;18313;48.518;9.124;2024-02-21T08:30:42;6.60;99.90
31735;DHT22;18313;48.518;9.124;2024-02-21T08:33:15;6.70;99.90
31735;DHT22;18313;48.518;9.124;2024-02-21T08:35:46;6.80;99.90
31735;DHT22;18313;48.518;9.124;2024-02-21T08:38:13;7.00;99.90
31735;DHT22;18313;48.518;9.124;2024-02-21T08:40:40;7.10;99.90
31735;DHT22;18313;48.518;9.124;2024-02-21T08:43:07;7.20;99.90
31735;DHT22;18313;48.518;9.124;2024-02-21T08:45:35;7.30;99.90
31735;DHT22;18313;48.518;9.124;2024-02-21T08:48:02;7.40;99.90
31735;DHT22;18313;48.518;9.124;2024-02-21T08:50:30;7.50;99.90
31735;DHT22;18313;48.518;9.124;2024-02-21T08:52:59;7.60;99.90
31735;DHT22;18313;48.518;9.124;2024-02-21T08:55:26;7.80;99.90
31735;DHT22;18313;48.518;9.124;2024-02-21T08:57:54;7.90;99.90
31735;DHT22;18313;48.518;9.124;2024-02-21T09:00:21;7.80;99.90
31735;DHT22;18313;48.518;9.124;2024-02-21T09:02:55;7.90;99.90
31735;DHT22;18313;48.518;9.124;2024-02-21T09:05:25;8.00;99.90
31735;DHT22;18313;48.518;9.124;2024-02-21T09:07:53;8.00;99.90
31735;DHT22;18313;48.518;9.124;2024-02-21T09:10:21;8.00;99.90
31735;DHT22;18313;48.518;9.124;2024-02-21T09:12:49;8.10;99.90
31735;DHT22;18313;48.518;9.124;2024-02-21T09:15:16;8.10;99.90
31735;DHT22;18313;48.518;9.124;2024-02-21T09:17:43;8.10;99.90
31735;DHT22;18313;48.518;9.124;2024-02-21T09:20:11;8.20;99.90
31735;DHT22;18313;48.518;9.124;2024-02-21T09:22:39;8.30;99.90
31735;DHT22;18313;48.518;9.124;2024-02-21T09:25:07;8.40;99.90
31735;DHT22;18313;48.518;9.124;2024-02-21T09:27:34;8.50;99.90
31735;DHT22;18313;48.518;9.124;2024-02-21T09:30:02;8.50;99.90
31735;DHT22;18313;48.518;9.124;2024-02-21T09:32:31;8.50;99.90
31735;DHT22;18313;48.518;9.124;2024-02-21T09:35:02;8.60;99.90
31735;DHT22;18313;48.518;9.124;2024-02-21T09:37:30;8.70;99.90
31735;DHT22;18313;48.518;9.124;2024-02-21T09:39:58;8.80;99.90
31735;DHT22;18313;48.518;9.124;2024-02-21T09:42:41;8.90;99.90
31735;DHT22;18313;48.518;9.124;2024-02-21T09:50:30;9.50;99.90
31735;DHT22;18313;48.518;9.124;2024-02-21T09:53:01;9.60;99.90
31735;DHT22;18313;48.518;9.124;2024-02-21T09:55:31;9.90;99.90
31735;DHT22;18313;48.518;9.124;2024-02-21T09:58:02;10.10;99.90
31735;DHT22;18313;48.518;9.124;2024-02-21T10:00:30;10.30;99.90
31735;DHT22;18313;48.518;9.124;2024-02-21T10:02:58;10.60;99.90
31735;DHT22;18313;48.518;9.124;2024-02-21T10:05:26;10.80;99.90
31735;DHT22;18313;48.518;9.124;2024-02-21T10:07:55;10.80;99.90
31735;DHT22;18313;48.518;9.124;2024-02-21T10:10:23;11.00;99.90
31735;DHT22;18313;48.518;9.124;2024-02-21T10:12:54;11.10;99.90
31735;DHT22;18313;48.518;9.124;2024-02-21T10:15:25;11.20;99.90
31735;DHT22;18313;48.518;9.124;2024-02-21T10:17:59;11.30;99.90
31735;DHT22;18313;48.518;9.124;2024-02-21T10:20:27;11.50;99.90
31735;DHT22;18313;48.518;9.124;2024-02-21T10:23:05;11.50;99.90
31735;DHT22;18313;48.518;9.124;2024-02-21T10:25:36;11.60;99.90
31735;DHT22;18313;48.518;9.124;2024-02-21T10:28:12;11.70;99.90
31735;DHT22;18313;48.518;9.124;2024-02-21T10:30:50;11.90;99.90
31735;DHT22;18313;48.518;9.124;2024-02-21T10:33:18;12.00;99.90
31735;DHT22;18313;48.518;9.124;2024-02-21T10:35:49;11.90;99.90
31735;DHT22;18313;48.518;9.124;2024-02-21T10:38:17;11.70;99.90
31735;DHT22;18313;48.518;9.124;2024-02-21T10:40:46;11.80;99.90
31735;DHT22;18313;48.518;9.124;2024-02-21T10:43:16;11.90;99.90
31735;DHT22;18313;48.518;9.124;2024-02-21T10:45:47;12.00;99.90
31735;DHT22;18313;48.518;9.124;2024-02-21T10:48:15;11.90;99.90
31735;DHT22;18313;48.518;9.124;2024-02-21T10:53:50;12.00;99.90
31735;DHT22;18313;48.518;9.124;2024-02-21T10:56:32;12.10;99.90
31735;DHT22;18313;48.518;9.124;2024-02-21T10:59:07;12.40;99.90
31735;DHT22;18313;48.518;9.124;2024-02-21T11:01:35;12.60;99.90
31735;DHT22;18313;48.518;9.124;2024-02-21T11:04:07;12.80;99.90
31735;DHT22;18313;48.518;9.124;2024-02-21T11:06:37;13.10;99.90
31735;DHT22;18313;48.518;9.124;2024-02-21T11:09:07;13.20;99.90
31735;DHT22;18313;48.518;9.124;2024-02-21T11:11:35;13.30;99.90
31735;DHT22;18313;48.518;9.124;2024-02-21T11:14:20;13.40;99.90
31735;DHT22;18313;48.518;9.124;2024-02-21T11:16:48;13.40;99.90
31735;DHT22;18313;48.518;9.124;2024-02-21T11:19:23;13.40;99.90
31735;DHT22;18313;48.518;9.124;2024-02-21T11:21:52;13.40;99.90
31735;DHT22;18313;48.518;9.124;2024-02-21T11:24:30;13.50;99.90
31735;DHT22;18313;48.518;9.124;2024-02-21T11:27:14;13.50;99.50
31735;DHT22;18313;48.518;9.124;2024-02-21T11:29:46;13.60;99.60
31735;DHT22;18313;48.518;9.124;2024-02-21T11:32:17;13.60;99.50
31735;DHT22;18313;48.518;9.124;2024-02-21T11:35:04;13.70;98.90
31735;DHT22;18313;48.518;9.124;2024-02-21T11:37:36;13.50;98.50
31735;DHT22;18313;48.518;9.124;2024-02-21T11:40:07;13.60;99.50
31735;DHT22;18313;48.518;9.124;2024-02-21T11:42:39;13.70;98.70
31735;DHT22;18313;48.518;9.124;2024-02-21T11:45:06;13.70;98.60
31735;DHT22;18313;48.518;9.124;2024-02-21T11:47:36;13.70;98.50
31735;DHT22;18313;48.518;9.124;2024-02-21T11:50:10;13.80;98.40
31735;DHT22;18313;48.518;9.124;2024-02-21T11:52:38;13.90;98.80
31735;DHT22;18313;48.518;9.124;2024-02-21T11:55:06;14.10;98.40
31735;DHT22;18313;48.518;9.124;2024-02-21T11:57:37;14.10;97.70
31735;DHT22;18313;48.518;9.124;2024-02-21T12:00:15;13.90;98.80
31735;DHT22;18313;48.518;9.124;2024-02-21T12:02:44;14.00;97.70
31735;DHT22;18313;48.518;9.124;2024-02-21T12:05:13;14.00;98.00
31735;DHT22;18313;48.518;9.124;2024-02-21T12:07:41;14.00;99.20
31735;DHT22;18313;48.518;9.124;2024-02-21T12:10:10;14.00;97.30
31735;DHT22;18313;48.518;9.124;2024-02-21T12:12:38;13.90;98.00
31735;DHT22;18313;48.518;9.124;2024-02-21T12:15:06;13.80;97.80
31735;DHT22;18313;48.518;9.124;2024-02-21T12:17:35;13.90;97.80
31735;DHT22;18313;48.518;9.124;2024-02-21T12:20:03;13.90;97.70
31735;DHT22;18313;48.518;9.124;2024-02-21T12:22:33;13.70;97.40
31735;DHT22;18313;48.518;9.124;2024-02-21T12:25:03;13.70;97.90
31735;DHT22;18313;48.518;9.124;2024-02-21T12:27:31;13.90;98.10
31735;DHT22;18313;48.518;9.124;2024-02-21T12:29:58;13.90;98.10
31735;DHT22;18313;48.518;9.124;2024-02-21T12:32:26;13.90;97.00
31735;DHT22;18313;48.518;9.124;2024-02-21T12:34:53;13.80;96.70
31735;DHT22;18313;48.518;9.124;2024-02-21T12:37:22;13.60;96.90
31735;DHT22;18313;48.518;9.124;2024-02-21T12:39:51;13.60;97.20
31735;DHT22;18313;48.518;9.124;2024-02-21T12:42:19;13.80;98.30
31735;DHT22;18313;48.518;9.124;2024-02-21T12:44:46;14.10;97.40
31735;DHT22;18313;48.518;9.124;2024-02-21T12:47:13;14.20;97.10
31735;DHT22;18313;48.518;9.124;2024-02-21T12:49:41;14.20;97.10
31735;DHT22;18313;48.518;9.124;2024-02-21T12:52:12;14.30;96.60
31735;DHT22;18313;48.518;9.124;2024-02-21T12:54:40;14.40;96.80
31735;DHT22;18313;48.518;9.124;2024-02-21T12:57:09;14.40;96.40
31735;DHT22;18313;48.518;9.124;2024-02-21T12:59:36;14.50;97.00
31735;DHT22;18313;48.518;9.124;2024-02-21T13:02:04;14.50;96.90
31735;DHT22;18313;48.518;9.124;2024-02-21T13:04:32;14.40;96.80
31735;DHT22;18313;48.518;9.124;2024-02-21T13:06:59;14.50;96.60
31735;DHT22;18313;48.518;9.124;2024-02-21T13:09:26;14.40;96.60
31735;DHT22;18313;48.518;9.124;2024-02-21T13:11:53;14.30;96.90
31735;DHT22;18313;48.518;9.124;2024-02-21T13:14:21;14.20;97.50
31735;DHT22;18313;48.518;9.124;2024-02-21T13:16:49;14.20;97.70
31735;DHT22;18313;48.518;9.124;2024-02-21T13:19:17;14.20;97.50
31735;DHT22;18313;48.518;9.124;2024-02-21T13:21:45;14.30;97.60
31735;DHT22;18313;48.518;9.124;2024-02-21T13:24:12;14.30;96.70
31735;DHT22;18313;48.518;9.124;2024-02-21T13:26:40;14.40;97.40
31735;DHT22;18313;48.518;9.124;2024-02-21T13:29:07;14.50;96.60
31735;DHT22;18313;48.518;9.124;2024-02-21T13:31:34;14.50;97.30
31735;DHT22;18313;48.518;9.124;2024-02-21T13:34:02;14.40;97.00
31735;DHT22;18313;48.518;9.124;2024-02-21T13:36:30;14.50;96.70
31735;DHT22;18313;48.518;9.124;2024-02-21T13:38:57;14.40;96.70
31735;DHT22;18313;48.518;9.124;2024-02-21T13:41:24;14.50;96.30
31735;DHT22;18313;48.518;9.124;2024-02-21T13:43:52;14.60;96.70
31735;DHT22;18313;48.518;9.124;2024-02-21T13:46:19;14.70;96.30
31735;DHT22;18313;48.518;9.124;2024-02-21T13:48:47;14.90;96.00
31735;DHT22;18313;48.518;9.124;2024-02-21T13:51:14;15.00;95.60
31735;DHT22;18313;48.518;9.124;2024-02-21T13:53:44;15.10;95.90
31735;DHT22;18313;48.518;9.124;2024-02-21T13:56:11;15.00;95.50
31735;DHT22;18313;48.518;9.124;2024-02-21T13:58:38;15.10;96.10
31735;DHT22;18313;48.518;9.124;2024-02-21T14:01:05;15.00;95.50
31735;DHT22;18313;48.518;9.124;2024-02-21T14:03:33;15.00;96.10
31735;DHT22;18313;48.518;9.124;2024-02-21T14:06:00;15.00;95.80
31735;DHT22;18313;48.518;9.124;2024-02-21T14:08:27;15.00;96.00
31735;DHT22;18313;48.518;9.124;2024-02-21T14:10:55;14.80;96.20
31735;DHT22;18313;48.518;9.124;2024-02-21T14:13:23;14.80;96.00
31735;DHT22;18313;48.518;9.124;2024-02-21T14:15:50;14.60;95.80
31735;DHT22;18313;48.518;9.124;2024-02-21T14:18:17;14.40;96.80
31735;DHT22;18313;48.518;9.124;2024-02-21T14:20:45;14.50;96.80
31735;DHT22;18313;48.518;9.124;2024-02-21T14:23:14;14.60;96.90
31735;DHT22;18313;48.518;9.124;2024-02-21T14:25:41;14.70;95.90
31735;DHT22;18313;48.518;9.124;2024-02-21T14:28:09;14.80;96.00
31735;DHT22;18313;48.518;9.124;2024-02-21T14:30:36;14.70;95.60
31735;DHT22;18313;48.518;9.124;2024-02-21T14:33:04;14.80;96.10
31735;DHT22;18313;48.518;9.124;2024-02-21T14:35:31;14.80;95.90
31735;DHT22;18313;48.518;9.124;2024-02-21T14:38:00;14.80;96.30
31735;DHT22;18313;48.518;9.124;2024-02-21T14:40:28;14.90;95.90
31735;DHT22;18313;48.518;9.124;2024-02-21T14:42:57;15.00;96.20
31735;DHT22;18313;48.518;9.124;2024-02-21T14:45:24;14.90;95.20
31735;DHT22;18313;48.518;9.124;2024-02-21T14:47:52;14.70;95.70
31735;DHT22;18313;48.518;9.124;2024-02-21T14:50:19;14.60;95.90
31735;DHT22;18313;48.518;9.124;2024-02-21T14:52:48;14.50;95.70
31735;DHT22;18313;48.518;9.124;2024-02-21T14:55:16;14.50;95.60
31735;DHT22;18313;48.518;9.124;2024-02-21T14:57:43;14.30;96.10
31735;DHT22;18313;48.518;9.124;2024-02-21T15:00:12;14.10;96.90
31735;DHT22;18313;48.518;9.124;2024-02-21T15:02:39;14.20;96.20
31735;DHT22;18313;48.518;9.124;2024-02-21T15:05:08;14.20;96.20
31735;DHT22;18313;48.518;9.124;2024-02-21T15:07:35;14.10;96.50
31735;DHT22;18313;48.518;9.124;2024-02-21T15:10:03;14.10;96.30
31735;DHT22;18313;48.518;9.124;2024-02-21T15:12:30;14.20;96.40
31735;DHT22;18313;48.518;9.124;2024-02-21T15:14:58;14.20;96.80
31735;DHT22;18313;48.518;9.124;2024-02-21T15:17:28;14.30;96.80
31735;DHT22;18313;48.518;9.124;2024-02-21T15:19:57;14.30;97.40
31735;DHT22;18313;48.518;9.124;2024-02-21T15:22:26;14.30;98.00
31735;DHT22;18313;48.518;9.124;2024-02-21T15:24:54;14.30;97.80
31735;DHT22;18313;48.518;9.124;2024-02-21T15:27:21;14.20;97.60
31735;DHT22;18313;48.518;9.124;2024-02-21T15:29:49;14.10;96.90
31735;DHT22;18313;48.518;9.124;2024-02-21T15:32:17;14.10;96.10
31735;DHT22;18313;48.518;9.124;2024-02-21T15:34:45;14.10;96.70
31735;DHT22;18313;48.518;9.124;2024-02-21T15:37:15;14.10;97.50
31735;DHT22;18313;48.518;9.124;2024-02-21T15:39:42;14.10;98.00
31735;DHT22;18313;48.518;9.124;2024-02-21T15:42:12;14.10;98.20
31735;DHT22;18313;48.518;9.124;2024-02-21T15:44:40;14.10;98.70
31735;DHT22;18313;48.518;9.124;2024-02-21T15:47:07;13.90;98.90
31735;DHT22;18313;48.518;9.124;2024-02-21T15:49:35;13.90;99.40
31735;DHT22;18313;48.518;9.124;2024-02-21T15:52:02;13.80;99.80
31735;DHT22;18313;48.518;9.124;2024-02-21T15:54:30;13.70;99.90
31735;DHT22;18313;48.518;9.124;2024-02-21T15:56:57;13.70;99.90